Flight Track Log - Related Links

Times and Time Zones

All times are in EDT time to prevent confusion due to time zone crossing. See the TAM3082 flight status page for this flight to view local times or setup timezone preferences in your user account.

Time Position Orientation Groundspeed Altitude Reporting Facility
EDT Latitude Longitude Course Direction KTS MPH feet Rate Location/Type
Thu 12:26:00 PM -21.1248 -47.4967 163° South  Level Estimated
Thu 12:27:00 PM -21.2110 -47.4682 163° South  Level Estimated
Thu 12:28:00 PM -21.2971 -47.4397 163° South  Level Estimated
Thu 12:29:00 PM -21.3833 -47.4112 163° South  Level Estimated
Thu 12:30:00 PM -21.4694 -47.3826 163° South  Level Estimated
Thu 12:31:00 PM -21.5556 -47.3540 163° South  Level Estimated
Thu 12:32:00 PM -21.6417 -47.3254 163° South  Level Estimated
Thu 12:33:00 PM -21.7279 -47.2967 163° South  Level Estimated
Thu 12:34:00 PM -21.8140 -47.2680 163° South  Level Estimated
Thu 12:35:00 PM -21.9001 -47.2393 163° South  Level Estimated
Thu 12:36:00 PM -21.9863 -47.2105 163° South  Level Estimated
Thu 12:37:00 PM -22.0724 -47.1817 163° South  Level Estimated
Thu 12:38:00 PM -22.1585 -47.1529 163° South  Level Estimated
Thu 12:39:00 PM -22.2446 -47.1240 163° South  Level Estimated
Thu 12:40:00 PM -22.3307 -47.0951 163° South  Level Estimated
Thu 12:41:00 PM -22.4168 -47.0662 163° South  Level Estimated
Thu 12:42:00 PM -22.5029 -47.0372 163° South  Level Estimated
Thu 12:43:00 PM -22.5890 -47.0082 163° South  Level Estimated
Thu 12:44:00 PM -22.6751 -46.9791 163° South  Level Estimated
Thu 12:45:00 PM -22.7611 -46.9500 163° South  Level Estimated
Thu 12:46:00 PM -22.8472 -46.9209 163° South  Level Estimated
Thu 12:47:00 PM -22.9333 -46.8918 163° South  Level Estimated
Thu 12:48:00 PM -23.0193 -46.8626 163° South  Level Estimated
Thu 12:49:00 PM -23.1054 -46.8333 163° South  Level Estimated
Thu 12:50:00 PM -23.1915 -46.8041 163° South  Level Estimated
Thu 12:51:00 PM -23.2775 -46.7747 163° South  Level Estimated
Thu 12:52:00 PM -23.3635 -46.7454 163° South  Level Estimated
Thu 12:53:00 PM -23.4496 -46.7160 163° South  Level Estimated
Thu 12:54:00 PM -23.5356 -46.6866 163° South  Level Estimated
Thu 12:55:00 PM -23.6216 -46.6571 163° South  Level Estimated
Thu 12:56:00 PM -23.6267 -46.6554 163° South  Level Estimated
Thu 12:57:00 PM -23.6267 -46.6554 114° Southeast  Level Estimated
Thu 12:58:00 PM -23.6267 -46.6554 114° Southeast  Level Estimated
Thu 12:59:00 PM -23.6267 -46.6554 114° Southeast  Level Estimated
Thu 01:00:00 PM -23.6267 -46.6554 114° Southeast  Level Estimated
Thu 01:01:00 PM -23.6267 -46.6554 114° Southeast  Level Estimated
Thu 01:02:00 PM -23.6267 -46.6554 114° Southeast  Level Estimated
Thu 01:03:00 PM -23.6267 -46.6554 114° Southeast  Level Estimated
Thu 01:04:00 PM -23.6267 -46.6554 114° Southeast  Level Estimated
Thu 01:05:00 PM -23.6267 -46.6554 114° Southeast  Level Estimated
Thu 01:06:00 PM -23.6267 -46.6554 114° Southeast  Level Estimated
Thu 01:07:00 PM -23.6267 -46.6554 114° Southeast  Level Estimated
Thu 01:08:00 PM -23.6267 -46.6554 114° Southeast  Level Estimated
Thu 01:09:00 PM -23.6267 -46.6554 114° Southeast  Level Estimated
Thu 01:10:00 PM -23.6267 -46.6554 114° Southeast  Level Estimated
Thu 01:11:00 PM -23.6267 -46.6554 114° Southeast  Level Estimated

Login

Don't have an account? Register now (free) for customized features, flight alerts, and more!